createdAt,value
2023-05-04T00:00:17.133Z,4.70
2023-05-04T00:02:44.606Z,4.60
2023-05-04T00:05:12.632Z,4.80
2023-05-04T00:07:39.866Z,5.15
2023-05-04T00:10:08.891Z,4.80
2023-05-04T00:12:36.287Z,5.22
2023-05-04T00:15:04.577Z,4.90
2023-05-04T00:17:32.184Z,4.90
2023-05-04T00:19:59.824Z,5.30
2023-05-04T00:22:28.153Z,4.72
2023-05-04T00:24:55.409Z,4.90
2023-05-04T00:27:22.801Z,4.85
2023-05-04T00:29:50.183Z,4.85
2023-05-04T00:32:17.747Z,4.50
2023-05-04T00:34:45.136Z,4.93
2023-05-04T00:37:12.375Z,4.88
2023-05-04T00:39:41.955Z,5.43
2023-05-04T00:42:09.298Z,4.93
2023-05-04T00:44:36.915Z,4.85
2023-05-04T00:47:04.311Z,5.22
2023-05-04T00:49:31.743Z,4.75
2023-05-04T00:52:01.344Z,4.70
2023-05-04T00:54:29.830Z,5.85
2023-05-04T00:56:57.246Z,4.82
2023-05-04T00:59:24.539Z,5.00
2023-05-04T01:01:51.936Z,5.25
2023-05-04T01:04:19.863Z,5.20
2023-05-04T01:06:52.792Z,4.65
2023-05-04T01:09:43.412Z,5.40
2023-05-04T01:12:34.220Z,5.65
2023-05-04T01:17:30.297Z,5.15
2023-05-04T01:19:57.580Z,4.90
2023-05-04T01:22:26.668Z,5.07
2023-05-04T01:24:55.533Z,4.80
2023-05-04T01:27:42.806Z,5.05
2023-05-04T01:30:25.834Z,4.95
2023-05-04T01:32:54.388Z,5.20
2023-05-04T01:35:22.281Z,5.28
2023-05-04T01:37:49.532Z,4.85
2023-05-04T01:40:18.513Z,4.55
2023-05-04T01:42:46.147Z,4.57
2023-05-04T01:45:13.494Z,5.70
2023-05-04T01:47:40.825Z,5.20
2023-05-04T01:50:08.812Z,5.68
2023-05-04T01:52:36.109Z,4.80
2023-05-04T01:55:03.529Z,5.50
2023-05-04T01:57:32.876Z,4.95
2023-05-04T02:00:00.152Z,5.45
2023-05-04T02:02:27.618Z,5.35
2023-05-04T02:04:54.990Z,6.15
2023-05-04T02:07:22.465Z,5.00
2023-05-04T02:09:49.673Z,5.80
2023-05-04T02:12:16.953Z,6.45
2023-05-04T02:14:44.159Z,6.38
2023-05-04T02:17:11.815Z,6.43
2023-05-04T02:19:39.539Z,6.47
2023-05-04T02:22:07.740Z,7.20
2023-05-04T02:24:35.984Z,6.32
2023-05-04T02:27:03.389Z,6.57
2023-05-04T02:29:30.716Z,7.05
2023-05-04T02:31:58.059Z,7.40
2023-05-04T02:34:25.840Z,6.28
2023-05-04T02:36:54.997Z,6.72
2023-05-04T02:39:22.279Z,6.25
2023-05-04T02:41:49.546Z,6.57
2023-05-04T02:44:16.756Z,6.78
2023-05-04T02:46:44.046Z,6.78
2023-05-04T02:49:11.492Z,6.75
2023-05-04T02:51:38.768Z,5.95
2023-05-04T02:54:06.821Z,6.43
2023-05-04T02:56:34.222Z,6.25
2023-05-04T02:59:04.812Z,6.43
2023-05-04T03:01:34.180Z,6.55
2023-05-04T03:04:02.361Z,6.38
2023-05-04T03:06:29.879Z,6.30
2023-05-04T03:08:59.161Z,6.82
2023-05-04T03:11:27.245Z,6.50
2023-05-04T03:13:54.636Z,6.15
2023-05-04T03:16:22.079Z,6.75
2023-05-04T03:18:51.120Z,6.38
2023-05-04T03:21:18.567Z,6.22
2023-05-04T03:23:46.137Z,6.50
2023-05-04T03:26:13.398Z,7.18
2023-05-04T03:28:41.034Z,6.97
2023-05-04T03:31:08.798Z,6.38
2023-05-04T03:33:36.309Z,7.07
2023-05-04T03:36:03.850Z,6.57
2023-05-04T03:38:31.818Z,6.15
2023-05-04T03:41:00.230Z,6.40
2023-05-04T03:43:28.246Z,6.72
2023-05-04T03:48:25.685Z,6.53
2023-05-04T03:50:54.028Z,6.60
2023-05-04T03:53:21.387Z,7.43
2023-05-04T03:55:48.692Z,5.78
2023-05-04T03:58:15.990Z,6.43
2023-05-04T04:00:43.237Z,6.78
2023-05-04T04:03:15.348Z,6.57
2023-05-04T04:05:43.054Z,7.20
2023-05-04T04:08:10.374Z,6.70
2023-05-04T04:10:37.649Z,7.40
2023-05-04T04:13:05.085Z,7.25
2023-05-04T04:15:32.385Z,7.80
2023-05-04T04:18:01.210Z,7.68
2023-05-04T04:20:28.483Z,7.55
2023-05-04T04:22:55.656Z,6.82
2023-05-04T04:25:23.298Z,7.15
2023-05-04T04:27:51.296Z,7.10
2023-05-04T04:30:18.480Z,7.15
2023-05-04T04:32:47.292Z,6.63
2023-05-04T04:35:15.016Z,7.07
2023-05-04T04:37:42.408Z,7.13
2023-05-04T04:40:10.375Z,6.43
2023-05-04T04:42:37.694Z,7.00
2023-05-04T04:45:05.807Z,7.30
2023-05-04T04:47:33.129Z,7.38
2023-05-04T04:50:00.434Z,6.60
2023-05-04T04:52:27.928Z,6.72
2023-05-04T04:54:55.310Z,7.05
2023-05-04T04:57:22.748Z,7.75
2023-05-04T04:59:50.052Z,7.00
2023-05-04T05:02:17.566Z,7.97
2023-05-04T05:04:44.796Z,7.47
2023-05-04T05:07:12.317Z,6.35
2023-05-04T05:09:41.325Z,6.18
2023-05-04T05:12:08.535Z,6.53
2023-05-04T05:14:36.144Z,6.38
2023-05-04T05:17:08.420Z,6.68
2023-05-04T05:19:37.210Z,6.38
2023-05-04T05:22:05.045Z,6.13
2023-05-04T05:24:32.482Z,6.05
2023-05-04T05:27:00.704Z,5.65
2023-05-04T05:29:28.250Z,5.93
2023-05-04T05:31:55.704Z,5.72
2023-05-04T05:34:23.252Z,6.25
2023-05-04T05:36:50.535Z,6.57
2023-05-04T05:39:17.884Z,6.28
2023-05-04T05:41:45.314Z,6.40
2023-05-04T05:44:13.183Z,6.65
2023-05-04T05:46:40.682Z,5.72
2023-05-04T05:49:08.054Z,5.22
2023-05-04T05:51:35.348Z,6.10
2023-05-04T05:54:02.640Z,5.85
2023-05-04T05:56:29.992Z,5.40
2023-05-04T05:58:57.397Z,4.95
2023-05-04T06:01:24.749Z,6.05
2023-05-04T06:03:52.251Z,6.15
2023-05-04T06:06:19.931Z,5.82
2023-05-04T06:08:47.365Z,6.10
2023-05-04T06:11:14.993Z,6.32
2023-05-04T06:13:42.253Z,6.28
2023-05-04T06:16:09.570Z,6.07
2023-05-04T06:18:37.013Z,5.85
2023-05-04T06:21:04.805Z,5.45
2023-05-04T06:23:32.097Z,6.10
2023-05-04T06:26:00.686Z,5.50
2023-05-04T06:28:27.861Z,5.50
2023-05-04T06:30:55.155Z,5.95
2023-05-04T06:33:23.670Z,5.32
2023-05-04T06:35:52.421Z,5.85
2023-05-04T06:38:19.744Z,6.15
2023-05-04T06:40:47.370Z,5.45
2023-05-04T06:43:14.647Z,5.43
2023-05-04T06:45:41.990Z,5.10
2023-05-04T06:48:09.297Z,5.82
2023-05-04T06:50:36.638Z,5.65
2023-05-04T06:53:05.012Z,5.38
2023-05-04T06:55:32.288Z,5.53
2023-05-04T06:57:59.719Z,5.00
2023-05-04T07:00:27.665Z,5.38
2023-05-04T07:02:55.435Z,5.20
2023-05-04T07:05:24.370Z,5.47
2023-05-04T07:07:51.966Z,5.18
2023-05-04T07:10:19.632Z,5.30
2023-05-04T07:12:47.031Z,5.25
2023-05-04T07:15:14.443Z,5.57
2023-05-04T07:17:43.020Z,5.38
2023-05-04T07:20:11.417Z,5.50
2023-05-04T07:22:38.806Z,4.90
2023-05-04T07:25:06.657Z,4.70
2023-05-04T07:27:36.716Z,5.00
2023-05-04T07:30:06.838Z,5.70
2023-05-04T07:32:34.399Z,4.63
2023-05-04T07:35:01.676Z,4.47
2023-05-04T07:37:29.031Z,4.63
2023-05-04T07:39:56.382Z,4.68
2023-05-04T07:42:23.612Z,4.70
2023-05-04T07:44:52.187Z,4.97
2023-05-04T07:47:20.159Z,4.70
2023-05-04T07:49:47.542Z,4.75
2023-05-04T07:52:14.953Z,5.43
2023-05-04T07:54:42.359Z,5.00
2023-05-04T07:57:09.700Z,5.07
2023-05-04T07:59:36.996Z,5.70
2023-05-04T08:02:04.429Z,6.68
2023-05-04T08:04:31.983Z,4.85
2023-05-04T08:06:59.464Z,5.50
2023-05-04T08:09:26.921Z,4.97
2023-05-04T08:11:54.228Z,5.45
2023-05-04T08:14:22.007Z,5.25
2023-05-04T08:16:49.322Z,5.15
2023-05-04T08:19:16.650Z,5.18
2023-05-04T08:21:43.953Z,5.90
2023-05-04T08:24:11.449Z,5.38
2023-05-04T08:26:39.296Z,5.47
2023-05-04T08:29:08.933Z,5.35
2023-05-04T08:31:37.049Z,5.93
2023-05-04T08:34:04.763Z,5.57
2023-05-04T08:36:32.191Z,5.07
2023-05-04T08:39:01.087Z,5.93
2023-05-04T08:41:28.692Z,5.90
2023-05-04T08:43:56.317Z,5.43
2023-05-04T08:46:24.767Z,5.55
2023-05-04T08:48:52.131Z,5.63
2023-05-04T08:51:20.260Z,5.30
2023-05-04T08:53:50.382Z,5.38
2023-05-04T08:56:18.490Z,5.28
2023-05-04T08:58:50.728Z,5.22
2023-05-04T09:01:19.653Z,5.35
2023-05-04T09:03:48.926Z,5.65
2023-05-04T09:06:16.884Z,5.63
2023-05-04T09:08:44.535Z,4.90
2023-05-04T09:11:12.334Z,4.53
2023-05-04T09:13:42.865Z,5.10
2023-05-04T09:16:10.817Z,4.53
2023-05-04T09:18:59.079Z,8.52
2023-05-04T09:21:30.815Z,5.50
2023-05-04T09:23:58.496Z,4.35
2023-05-04T09:26:33.363Z,4.80
2023-05-04T09:29:14.798Z,4.75
2023-05-04T09:31:47.577Z,5.05
2023-05-04T09:34:17.095Z,4.38
2023-05-04T09:36:44.849Z,4.65
2023-05-04T09:39:12.885Z,4.22
2023-05-04T09:41:40.843Z,3.67
2023-05-04T09:44:22.469Z,4.00
2023-05-04T09:46:57.615Z,4.15
2023-05-04T09:49:37.951Z,3.95
2023-05-04T09:52:06.918Z,3.85
2023-05-04T09:54:36.302Z,4.10
2023-05-04T09:57:16.221Z,4.00
2023-05-04T09:59:43.632Z,3.60
2023-05-04T10:02:22.615Z,3.75
2023-05-04T10:04:52.203Z,4.00
2023-05-04T10:07:21.174Z,4.03
2023-05-04T10:09:49.254Z,4.00
2023-05-04T10:12:16.563Z,4.18
2023-05-04T10:14:47.012Z,3.65
2023-05-04T10:17:42.029Z,3.40
2023-05-04T10:20:43.896Z,3.72
2023-05-04T10:23:42.320Z,4.22
2023-05-04T10:26:42.048Z,4.05
2023-05-04T10:29:23.774Z,3.85
2023-05-04T10:31:53.534Z,3.78
2023-05-04T10:34:28.015Z,3.95
2023-05-04T10:36:56.438Z,4.57
2023-05-04T10:39:26.471Z,3.40
2023-05-04T10:42:05.528Z,3.63
2023-05-04T10:44:49.293Z,4.15
2023-05-04T10:47:33.684Z,4.25
2023-05-04T10:50:08.926Z,4.07
2023-05-04T10:52:53.933Z,3.80
2023-05-04T10:55:22.255Z,3.80
2023-05-04T10:57:51.300Z,3.72
2023-05-04T11:00:19.192Z,4.05
2023-05-04T11:02:47.848Z,3.90
2023-05-04T11:05:20.718Z,3.38
2023-05-04T11:07:53.510Z,4.40
2023-05-04T11:10:25.831Z,3.85
2023-05-04T11:12:55.414Z,3.97
2023-05-04T11:15:22.984Z,4.10
2023-05-04T11:17:53.109Z,4.63
2023-05-04T11:20:29.577Z,4.00
2023-05-04T11:22:57.037Z,4.05
2023-05-04T11:25:29.598Z,4.05
2023-05-04T11:27:59.171Z,4.38
2023-05-04T11:30:34.719Z,3.90
2023-05-04T11:33:04.993Z,3.63
2023-05-04T11:35:33.457Z,3.35
2023-05-04T11:38:01.130Z,3.65
2023-05-04T11:40:28.511Z,3.90
2023-05-04T11:42:57.760Z,4.05
2023-05-04T11:45:28.512Z,4.60
2023-05-04T11:47:59.626Z,4.78
2023-05-04T11:50:28.806Z,4.30
2023-05-04T11:53:14.366Z,4.20
2023-05-04T11:55:42.957Z,3.72
2023-05-04T11:58:11.692Z,3.95
2023-05-04T12:00:42.603Z,4.47
2023-05-04T12:03:15.278Z,3.80
2023-05-04T12:05:47.970Z,3.75
2023-05-04T12:08:35.578Z,3.70
2023-05-04T12:11:25.604Z,3.90
2023-05-04T12:16:31.813Z,3.90
2023-05-04T12:19:04.866Z,3.80
2023-05-04T12:21:33.240Z,3.65
2023-05-04T12:24:01.315Z,4.35
2023-05-04T12:26:28.622Z,3.70
2023-05-04T12:28:56.696Z,3.92
2023-05-04T12:31:25.314Z,4.65
2023-05-04T12:33:53.201Z,4.10
2023-05-04T12:36:21.620Z,3.45
2023-05-04T12:38:48.858Z,3.70
2023-05-04T12:41:16.459Z,4.07
2023-05-04T12:43:44.017Z,3.88
2023-05-04T12:46:11.638Z,3.63
2023-05-04T12:48:39.128Z,5.03
2023-05-04T12:51:06.553Z,3.45
2023-05-04T12:53:34.305Z,3.75
2023-05-04T12:56:02.419Z,4.28
2023-05-04T12:58:30.689Z,3.28
2023-05-04T13:00:58.932Z,4.53
2023-05-04T13:03:26.433Z,4.25
2023-05-04T13:05:54.078Z,3.90
2023-05-04T13:08:21.385Z,3.58
2023-05-04T13:10:48.642Z,3.40
2023-05-04T13:13:17.871Z,3.42
2023-05-04T13:15:45.599Z,3.50
2023-05-04T13:18:13.201Z,3.65
2023-05-04T13:20:41.347Z,3.63
2023-05-04T13:23:08.689Z,3.78
2023-05-04T13:25:36.310Z,3.92
2023-05-04T13:28:03.910Z,3.40
2023-05-04T13:30:31.191Z,3.63
2023-05-04T13:32:58.520Z,3.78
2023-05-04T13:35:26.006Z,3.50
2023-05-04T13:37:53.702Z,3.55
2023-05-04T13:40:21.093Z,3.30
2023-05-04T13:42:48.444Z,3.65
2023-05-04T13:45:16.515Z,3.28
2023-05-04T13:47:44.270Z,2.85
2023-05-04T13:50:12.124Z,2.60
2023-05-04T13:52:40.569Z,3.00
2023-05-04T13:55:09.231Z,3.08
2023-05-04T13:57:36.656Z,2.60
2023-05-04T14:00:08.395Z,2.85
2023-05-04T14:02:38.784Z,2.90
2023-05-04T14:05:07.814Z,2.60
2023-05-04T14:07:36.055Z,2.85
2023-05-04T14:10:03.899Z,2.70
2023-05-04T14:12:31.459Z,2.63
2023-05-04T14:14:59.155Z,2.47
2023-05-04T14:17:26.840Z,2.33
2023-05-04T14:19:54.242Z,2.88
2023-05-04T14:22:21.586Z,2.45
2023-05-04T14:24:50.189Z,2.25
2023-05-04T14:27:18.634Z,2.20
2023-05-04T14:29:47.876Z,2.60
2023-05-04T14:32:15.795Z,2.50
2023-05-04T14:34:43.268Z,2.30
2023-05-04T14:37:10.545Z,2.42
2023-05-04T14:39:39.584Z,2.10
2023-05-04T14:42:08.636Z,2.65
2023-05-04T14:44:38.722Z,2.50
2023-05-04T14:47:07.690Z,2.55
2023-05-04T14:49:37.555Z,2.28
2023-05-04T14:52:05.112Z,1.88
2023-05-04T14:54:32.674Z,2.35
2023-05-04T14:57:00.326Z,2.40
2023-05-04T14:59:27.834Z,2.25
2023-05-04T15:01:55.863Z,2.15
2023-05-04T15:04:23.248Z,2.40
2023-05-04T15:06:52.413Z,2.10
2023-05-04T15:09:19.715Z,2.58
2023-05-04T15:11:47.179Z,2.30
2023-05-04T15:14:15.169Z,2.30
2023-05-04T15:16:42.528Z,2.20
2023-05-04T15:19:10.005Z,2.25
2023-05-04T15:21:37.226Z,2.58
2023-05-04T15:24:04.983Z,2.22
2023-05-04T15:26:34.445Z,2.45
2023-05-04T15:29:01.842Z,2.00
2023-05-04T15:31:32.430Z,2.50
2023-05-04T15:36:29.325Z,2.28
2023-05-04T15:38:56.990Z,3.00
2023-05-04T15:41:24.282Z,2.22
2023-05-04T15:43:51.621Z,1.90
2023-05-04T15:46:24.994Z,2.38
2023-05-04T15:48:52.286Z,2.50
2023-05-04T15:51:19.681Z,1.98
2023-05-04T15:53:47.256Z,2.55
2023-05-04T15:56:15.628Z,1.90
2023-05-04T15:58:45.030Z,1.92
2023-05-04T16:01:14.819Z,2.33
2023-05-04T16:03:44.053Z,1.83
2023-05-04T16:06:12.725Z,2.22
2023-05-04T16:08:40.618Z,3.05
2023-05-04T16:11:08.254Z,2.22
2023-05-04T16:13:35.860Z,2.10
2023-05-04T16:16:03.862Z,2.63
2023-05-04T16:18:31.150Z,2.30
2023-05-04T16:20:58.382Z,2.05
2023-05-04T16:23:26.843Z,2.03
2023-05-04T16:25:54.262Z,2.17
2023-05-04T16:28:23.346Z,1.92
2023-05-04T16:30:50.693Z,1.90
2023-05-04T16:33:19.685Z,2.08
2023-05-04T16:35:47.110Z,1.70
2023-05-04T16:38:14.439Z,1.90
2023-05-04T16:40:42.601Z,2.33
2023-05-04T16:43:10.629Z,1.83
2023-05-04T16:45:40.468Z,1.95
2023-05-04T16:48:08.035Z,2.13
2023-05-04T16:50:35.468Z,2.42
2023-05-04T16:53:03.109Z,2.10
2023-05-04T16:55:30.915Z,2.75
2023-05-04T16:57:58.806Z,2.72
2023-05-04T17:00:26.436Z,2.40
2023-05-04T17:02:53.964Z,2.15
2023-05-04T17:05:21.351Z,2.30
2023-05-04T17:07:48.796Z,1.77
2023-05-04T17:10:18.256Z,1.75
2023-05-04T17:12:45.602Z,2.72
2023-05-04T17:15:12.912Z,2.95
2023-05-04T17:17:41.475Z,2.20
2023-05-04T17:20:14.895Z,2.03
2023-05-04T17:22:43.086Z,2.58
2023-05-04T17:25:12.433Z,2.35
2023-05-04T17:27:40.494Z,1.80
2023-05-04T17:30:14.163Z,2.03
2023-05-04T17:32:41.777Z,2.00
2023-05-04T17:35:23.474Z,2.13
2023-05-04T17:37:59.193Z,2.05
2023-05-04T17:40:28.525Z,2.10
2023-05-04T17:42:56.544Z,2.35
2023-05-04T17:45:24.076Z,2.38
2023-05-04T17:47:52.297Z,2.42
2023-05-04T17:50:20.452Z,2.30
2023-05-04T17:52:52.811Z,1.67
2023-05-04T17:55:21.152Z,2.03
2023-05-04T17:57:48.739Z,1.75
2023-05-04T18:00:20.137Z,2.30
2023-05-04T18:02:47.710Z,1.98
2023-05-04T18:05:15.855Z,3.92
2023-05-04T18:07:44.527Z,11.93
2023-05-04T18:10:12.124Z,2.08
2023-05-04T18:12:40.495Z,2.05
2023-05-04T18:15:09.132Z,2.00
2023-05-04T18:17:40.772Z,2.00
2023-05-04T18:20:09.608Z,1.98
2023-05-04T18:22:37.394Z,2.00
2023-05-04T18:25:05.390Z,2.08
2023-05-04T18:27:33.822Z,1.90
2023-05-04T18:30:02.258Z,2.03
2023-05-04T18:32:29.893Z,2.17
2023-05-04T18:35:01.439Z,2.60
2023-05-04T18:37:31.622Z,2.75
2023-05-04T18:39:59.520Z,3.13
2023-05-04T18:42:27.014Z,2.38
2023-05-04T18:44:55.027Z,2.47
2023-05-04T18:47:22.475Z,2.60
2023-05-04T18:49:54.716Z,2.25
2023-05-04T18:52:22.361Z,2.45
2023-05-04T18:54:49.807Z,2.60
2023-05-04T18:57:17.861Z,2.72
2023-05-04T18:59:45.701Z,2.00
2023-05-04T19:02:13.073Z,2.60
2023-05-04T19:04:40.652Z,2.80
2023-05-04T19:07:09.961Z,2.88
2023-05-04T19:09:37.766Z,3.35
2023-05-04T19:12:05.404Z,3.05
2023-05-04T19:14:33.063Z,2.65
2023-05-04T19:17:01.183Z,2.60
2023-05-04T19:19:28.746Z,2.88
2023-05-04T19:21:56.058Z,2.28
2023-05-04T19:24:23.573Z,2.70
2023-05-04T19:26:50.895Z,2.20
2023-05-04T19:29:18.354Z,2.88
2023-05-04T19:31:45.861Z,2.55
2023-05-04T19:34:14.102Z,2.60
2023-05-04T19:36:42.875Z,2.90
2023-05-04T19:39:10.739Z,3.10
2023-05-04T19:41:38.266Z,2.30
2023-05-04T19:44:10.130Z,2.50
2023-05-04T19:46:37.833Z,2.50
2023-05-04T19:49:05.408Z,2.33
2023-05-04T19:51:33.074Z,2.70
2023-05-04T19:54:00.272Z,2.65
2023-05-04T19:56:27.729Z,2.67
2023-05-04T19:58:54.973Z,3.00
2023-05-04T20:01:23.225Z,2.97
2023-05-04T20:03:50.649Z,2.70
2023-05-04T20:06:18.112Z,3.17
2023-05-04T20:08:45.507Z,3.22
2023-05-04T20:11:13.252Z,3.13
2023-05-04T20:13:40.748Z,3.00
2023-05-04T20:16:08.638Z,2.85
2023-05-04T20:18:36.229Z,3.28
2023-05-04T20:21:03.679Z,2.47
2023-05-04T20:23:30.913Z,2.53
2023-05-04T20:25:58.533Z,2.47
2023-05-04T20:28:25.935Z,2.70
2023-05-04T20:30:54.499Z,2.63
2023-05-04T20:33:21.856Z,2.15
2023-05-04T20:35:49.068Z,2.10
2023-05-04T20:38:16.546Z,2.47
2023-05-04T20:40:43.990Z,2.08
2023-05-04T20:43:11.616Z,2.00
2023-05-04T20:45:39.294Z,2.45
2023-05-04T20:48:06.991Z,2.40
2023-05-04T20:50:34.462Z,2.35
2023-05-04T20:53:02.324Z,2.13
2023-05-04T20:55:29.967Z,2.45
2023-05-04T20:57:57.877Z,1.92
2023-05-04T21:00:25.511Z,2.20
2023-05-04T21:02:53.481Z,2.30
2023-05-04T21:05:20.854Z,2.70
2023-05-04T21:07:48.194Z,2.80
2023-05-04T21:10:17.367Z,2.63
2023-05-04T21:12:44.712Z,2.75
2023-05-04T21:15:13.078Z,3.00
2023-05-04T21:17:40.812Z,2.30
2023-05-04T21:20:09.588Z,3.00
2023-05-04T21:22:37.171Z,3.05
2023-05-04T21:25:04.847Z,3.15
2023-05-04T21:27:32.087Z,3.15
2023-05-04T21:29:59.391Z,3.15
2023-05-04T21:32:27.962Z,3.10
2023-05-04T21:34:55.501Z,3.13
2023-05-04T21:37:22.791Z,3.15
2023-05-04T21:39:56.847Z,3.25
2023-05-04T21:42:24.192Z,3.78
2023-05-04T21:44:57.394Z,3.40
2023-05-04T21:47:24.809Z,3.40
2023-05-04T21:49:53.448Z,3.20
2023-05-04T21:52:21.671Z,3.45
2023-05-04T21:54:49.232Z,3.20
2023-05-04T21:57:16.593Z,3.25
2023-05-04T21:59:43.933Z,3.28
2023-05-04T22:02:11.148Z,3.85
2023-05-04T22:04:42.883Z,3.38
2023-05-04T22:07:11.148Z,3.42
2023-05-04T22:09:39.000Z,3.65
2023-05-04T22:12:07.550Z,3.88
2023-05-04T22:14:34.851Z,3.78
2023-05-04T22:17:02.553Z,3.58
2023-05-04T22:19:29.992Z,3.30
2023-05-04T22:21:57.506Z,3.38
2023-05-04T22:24:28.538Z,4.00
2023-05-04T22:26:55.988Z,4.57
2023-05-04T22:29:23.394Z,4.35
2023-05-04T22:31:50.713Z,4.60
2023-05-04T22:34:18.140Z,4.18
2023-05-04T22:36:45.327Z,3.95
2023-05-04T22:39:13.263Z,4.18
2023-05-04T22:41:40.810Z,4.40
2023-05-04T22:44:08.747Z,3.83
2023-05-04T22:46:36.079Z,4.50
2023-05-04T22:49:04.749Z,4.20
2023-05-04T22:51:32.548Z,4.45
2023-05-04T22:54:00.127Z,4.45
2023-05-04T22:56:28.982Z,4.10
2023-05-04T22:58:56.829Z,4.10
2023-05-04T23:01:24.390Z,4.18
2023-05-04T23:03:52.257Z,3.88
2023-05-04T23:06:21.826Z,4.50
2023-05-04T23:08:49.345Z,4.30
2023-05-04T23:11:20.945Z,4.70
2023-05-04T23:13:48.301Z,3.60
2023-05-04T23:16:15.689Z,4.05
2023-05-04T23:18:43.198Z,5.30
2023-05-04T23:21:10.461Z,4.68
2023-05-04T23:23:38.378Z,4.88
2023-05-04T23:26:05.797Z,4.53
2023-05-04T23:28:33.201Z,4.53
2023-05-04T23:31:00.503Z,4.60
2023-05-04T23:33:28.189Z,4.97
2023-05-04T23:35:56.066Z,4.90
2023-05-04T23:38:23.829Z,5.75
2023-05-04T23:40:51.942Z,5.10
2023-05-04T23:43:19.459Z,4.78
2023-05-04T23:45:46.824Z,5.65
2023-05-04T23:48:14.650Z,5.03
2023-05-04T23:50:54.188Z,4.95
2023-05-04T23:53:21.551Z,4.85
2023-05-04T23:55:58.305Z,4.57
2023-05-04T23:58:26.292Z,5.30
